Time;durP1;ratioP1;P1;durP2;ratioP2;P2;SDS_P1;SDS_P2;PMS_P1;PMS_P2;Temp;Humidity;BMP_temperature;BMP_pressure;BME280_temperature;BME280_humidity;BME280_pressure;Samples;Min_cycle;Max_cycle;Signal;HPM_P1;HPM_P2
2021/10/19 00:00:16;;;;;;;10.77;6.90;;;14.30;99.90;;;;;;5006851;28;20508;-50
2021/10/19 00:02:43;;;;;;;8.70;6.57;;;14.30;99.90;;;;;;5006650;28;20671;-51
2021/10/19 00:05:12;;;;;;;9.97;7.50;;;14.30;99.90;;;;;;5003166;28;20213;-50
2021/10/19 00:07:39;;;;;;;11.87;7.53;;;14.20;99.90;;;;;;5005260;28;20236;-49
2021/10/19 00:10:08;;;;;;;9.50;7.00;;;14.20;99.90;;;;;;5001379;28;20367;-52
2021/10/19 00:12:35;;;;;;;9.83;6.40;;;14.20;99.90;;;;;;5005059;28;20202;-52
2021/10/19 00:15:03;;;;;;;8.50;6.50;;;14.30;99.90;;;;;;5004438;28;20616;-52
2021/10/19 00:17:30;;;;;;;7.83;6.90;;;14.20;99.90;;;;;;5004935;28;20683;-49
2021/10/19 00:19:57;;;;;;;8.10;6.93;;;14.20;99.90;;;;;;5005763;28;20663;-51
2021/10/19 00:22:24;;;;;;;10.60;7.00;;;14.10;99.90;;;;;;5003005;28;20599;-51
2021/10/19 00:24:51;;;;;;;10.70;7.57;;;14.10;99.90;;;;;;5005376;28;20295;-51
2021/10/19 00:27:17;;;;;;;8.20;7.10;;;14.20;99.90;;;;;;5003167;28;20263;-52
2021/10/19 00:29:44;;;;;;;9.73;7.27;;;14.20;99.90;;;;;;5007330;28;20564;-52
2021/10/19 00:32:11;;;;;;;10.53;6.90;;;14.20;99.90;;;;;;5007879;28;20580;-53
2021/10/19 00:34:38;;;;;;;11.43;7.50;;;14.20;99.90;;;;;;5009035;28;20754;-50
2021/10/19 00:37:05;;;;;;;9.27;7.43;;;14.20;99.90;;;;;;5006790;28;20542;-50
2021/10/19 00:39:32;;;;;;;8.13;6.77;;;14.20;99.90;;;;;;5009482;28;20238;-52
2021/10/19 00:41:58;;;;;;;7.63;6.67;;;14.20;99.90;;;;;;5009936;28;20200;-52
2021/10/19 00:44:25;;;;;;;9.97;7.40;;;14.20;99.90;;;;;;5008582;28;20574;-50
2021/10/19 00:46:52;;;;;;;8.17;6.63;;;14.30;99.90;;;;;;5007286;28;20292;-49
2021/10/19 00:49:19;;;;;;;9.17;6.60;;;14.30;99.90;;;;;;5021883;28;20288;-51
2021/10/19 00:51:46;;;;;;;8.73;6.80;;;14.30;99.90;;;;;;5008961;28;20557;-52
2021/10/19 00:54:14;;;;;;;10.43;7.27;;;14.30;99.90;;;;;;5007821;28;20205;-52
2021/10/19 00:56:42;;;;;;;11.37;6.90;;;14.20;99.90;;;;;;5008911;28;20650;-52
2021/10/19 00:59:09;;;;;;;11.03;7.43;;;14.20;99.90;;;;;;5005996;28;20614;-51
2021/10/19 01:01:36;;;;;;;10.03;7.23;;;14.30;99.90;;;;;;5004871;28;20372;-52
2021/10/19 01:04:04;;;;;;;9.80;7.47;;;14.20;99.90;;;;;;5000831;28;20286;-52
2021/10/19 01:06:31;;;;;;;9.53;7.70;;;14.20;99.90;;;;;;5004923;28;20204;-52
2021/10/19 01:08:58;;;;;;;12.40;7.70;;;14.20;99.90;;;;;;5007312;28;20278;-53
2021/10/19 01:11:26;;;;;;;10.30;7.13;;;14.30;99.90;;;;;;5005558;28;20240;-50
2021/10/19 01:13:53;;;;;;;11.77;7.67;;;14.30;99.90;;;;;;5007753;28;20578;-50
2021/10/19 01:16:20;;;;;;;11.07;8.00;;;14.30;99.90;;;;;;5001703;28;20219;-50
2021/10/19 01:18:47;;;;;;;10.30;7.50;;;14.30;99.90;;;;;;5006420;28;20214;-50
2021/10/19 01:21:14;;;;;;;8.47;7.17;;;14.30;99.90;;;;;;5003836;28;20209;-50
2021/10/19 01:23:41;;;;;;;10.07;7.87;;;14.30;99.90;;;;;;5006068;28;20632;-50
2021/10/19 01:26:09;;;;;;;11.07;7.53;;;14.30;99.90;;;;;;5005237;28;20596;-51
2021/10/19 01:28:42;;;;;;;8.73;7.10;;;14.30;99.90;;;;;;5005024;28;20303;-51
2021/10/19 01:31:11;;;;;;;10.83;7.77;;;14.30;99.90;;;;;;5005896;28;20609;-51
2021/10/19 01:33:39;;;;;;;11.40;7.73;;;14.30;99.90;;;;;;5005672;28;20281;-50
2021/10/19 01:36:08;;;;;;;9.67;8.47;;;14.40;99.90;;;;;;5008548;28;20249;-52
2021/10/19 01:38:38;;;;;;;10.97;7.93;;;14.40;99.90;;;;;;5007020;28;20197;-52
2021/10/19 01:41:05;;;;;;;9.93;7.30;;;14.40;99.90;;;;;;5009284;28;20202;-52
2021/10/19 01:43:32;;;;;;;12.07;7.97;;;14.50;99.90;;;;;;5004783;28;20341;-51
2021/10/19 01:46:01;;;;;;;11.17;8.67;;;14.50;99.90;;;;;;5007219;28;21905;-52
2021/10/19 01:48:29;;;;;;;8.70;7.53;;;14.50;99.90;;;;;;5009597;28;20201;-50
2021/10/19 01:50:57;;;;;;;11.37;6.80;;;14.60;99.90;;;;;;5008117;28;20336;-50
2021/10/19 01:53:24;;;;;;;9.60;6.80;;;14.50;99.90;;;;;;5006267;28;20240;-50
2021/10/19 01:55:52;;;;;;;11.00;7.17;;;14.50;99.90;;;;;;5007715;28;20308;-50
2021/10/19 01:58:23;;;;;;;9.43;7.13;;;14.50;99.90;;;;;;5008961;28;20294;-50
2021/10/19 02:00:54;;;;;;;10.00;7.43;;;14.50;99.90;;;;;;5005036;28;20292;-52
2021/10/19 02:03:21;;;;;;;10.10;7.23;;;14.50;99.90;;;;;;5007656;28;20224;-53
2021/10/19 02:05:50;;;;;;;10.20;7.77;;;14.50;99.90;;;;;;5006573;28;20677;-50
2021/10/19 02:08:16;;;;;;;13.50;7.87;;;14.40;99.90;;;;;;5007939;28;20200;-50
2021/10/19 02:10:43;;;;;;;10.07;7.37;;;14.40;99.90;;;;;;5009680;28;20270;-50
2021/10/19 02:13:11;;;;;;;11.33;8.07;;;14.50;99.90;;;;;;5007554;28;20293;-50
2021/10/19 02:15:38;;;;;;;9.10;7.17;;;14.50;99.90;;;;;;5007326;28;20578;-50
2021/10/19 02:18:06;;;;;;;9.43;7.10;;;14.50;99.90;;;;;;5007561;28;20292;-52
2021/10/19 02:20:34;;;;;;;11.43;7.90;;;14.50;99.90;;;;;;5008801;28;20241;-52
2021/10/19 02:23:02;;;;;;;10.80;8.07;;;14.50;99.90;;;;;;5005849;28;20281;-50
2021/10/19 02:25:29;;;;;;;8.77;7.33;;;14.50;99.90;;;;;;5007893;28;20621;-50
2021/10/19 02:27:56;;;;;;;10.53;8.37;;;14.40;99.90;;;;;;5007327;28;20272;-50
2021/10/19 02:30:25;;;;;;;11.67;7.60;;;14.40;99.90;;;;;;5008178;28;20210;-50
2021/10/19 02:32:53;;;;;;;12.13;8.43;;;14.40;99.90;;;;;;5010082;28;20231;-52
2021/10/19 02:35:20;;;;;;;10.80;7.77;;;14.40;99.90;;;;;;5006555;28;20210;-52
2021/10/19 02:37:49;;;;;;;10.40;8.43;;;14.40;99.90;;;;;;5007101;28;20682;-50
2021/10/19 02:40:17;;;;;;;13.57;8.10;;;14.40;99.90;;;;;;5008838;28;20691;-50
2021/10/19 02:42:44;;;;;;;11.17;8.07;;;14.40;99.90;;;;;;5008896;28;20196;-50
2021/10/19 02:45:11;;;;;;;12.50;8.43;;;14.40;99.90;;;;;;5006769;28;20232;-50
2021/10/19 02:47:40;;;;;;;10.80;7.97;;;14.40;99.90;;;;;;5006750;28;20200;-51
2021/10/19 02:50:08;;;;;;;11.50;8.70;;;14.40;99.90;;;;;;5005957;28;20213;-52
2021/10/19 02:52:35;;;;;;;10.57;8.20;;;14.40;99.90;;;;;;5008959;28;20331;-52
2021/10/19 02:55:02;;;;;;;11.43;8.43;;;14.40;99.90;;;;;;4999930;28;21951;-49
2021/10/19 02:57:29;;;;;;;10.13;9.03;;;14.50;99.90;;;;;;5006567;28;20202;-51
2021/10/19 02:59:57;;;;;;;12.53;9.07;;;14.40;99.90;;;;;;5009530;28;20200;-50
2021/10/19 03:02:24;;;;;;;12.57;9.40;;;14.50;99.90;;;;;;5003058;28;20197;-52
2021/10/19 03:04:51;;;;;;;13.40;9.63;;;14.50;99.90;;;;;;5003352;28;20202;-51
2021/10/19 03:07:18;;;;;;;11.50;9.07;;;14.40;99.90;;;;;;5008857;28;20267;-49
2021/10/19 03:09:45;;;;;;;10.37;8.73;;;14.50;99.90;;;;;;5008039;28;20259;-49
2021/10/19 03:12:12;;;;;;;12.57;9.47;;;14.40;99.90;;;;;;5007780;28;20226;-52
2021/10/19 03:14:38;;;;;;;11.50;9.57;;;14.50;99.90;;;;;;5006113;28;20206;-50
2021/10/19 03:17:05;;;;;;;14.43;9.77;;;14.50;99.90;;;;;;5002754;28;20374;-50
2021/10/19 03:19:32;;;;;;;16.27;10.43;;;14.40;99.90;;;;;;5002317;28;20203;-51
2021/10/19 03:21:59;;;;;;;11.27;8.87;;;14.40;99.90;;;;;;5006337;28;20672;-51
2021/10/19 03:24:26;;;;;;;12.67;9.63;;;14.40;99.90;;;;;;5003280;28;20194;-51
2021/10/19 03:26:53;;;;;;;12.17;9.50;;;14.40;99.90;;;;;;5002339;28;20209;-51
2021/10/19 03:29:20;;;;;;;14.33;9.80;;;14.40;99.90;;;;;;5008224;28;20241;-51
2021/10/19 03:31:47;;;;;;;12.87;9.00;;;14.40;99.90;;;;;;5004761;28;20275;-51
2021/10/19 03:34:13;;;;;;;11.00;8.90;;;14.40;99.90;;;;;;5005941;28;20328;-53
2021/10/19 03:36:40;;;;;;;13.47;9.43;;;14.40;99.90;;;;;;5005283;28;20244;-52
2021/10/19 03:39:07;;;;;;;10.63;8.97;;;14.50;99.90;;;;;;5003457;28;20295;-51
2021/10/19 03:41:34;;;;;;;12.30;9.20;;;14.40;99.90;;;;;;5004061;28;20289;-50
2021/10/19 03:44:01;;;;;;;11.20;9.00;;;14.40;99.90;;;;;;5006203;28;20192;-49
2021/10/19 03:46:27;;;;;;;10.57;8.83;;;14.50;99.90;;;;;;5006205;28;20201;-53
2021/10/19 03:48:54;;;;;;;11.07;9.27;;;14.40;99.90;;;;;;5006926;28;20614;-51
2021/10/19 03:51:21;;;;;;;11.60;9.43;;;14.40;99.90;;;;;;5004357;28;20263;-51
2021/10/19 03:53:48;;;;;;;12.17;9.57;;;14.40;99.90;;;;;;5005456;28;20330;-51
2021/10/19 03:56:15;;;;;;;12.53;9.67;;;14.40;99.90;;;;;;4999863;28;20217;-51
2021/10/19 03:58:42;;;;;;;10.63;8.57;;;14.50;99.90;;;;;;5002077;28;20266;-51
2021/10/19 04:01:08;;;;;;;12.17;8.20;;;14.40;99.90;;;;;;5006249;28;20553;-51
2021/10/19 04:03:36;;;;;;;11.67;8.53;;;14.40;99.90;;;;;;5005357;28;20219;-51
2021/10/19 04:06:03;;;;;;;10.17;8.57;;;14.40;99.90;;;;;;5000967;28;20208;-50
2021/10/19 04:08:30;;;;;;;13.93;9.67;;;14.50;99.90;;;;;;5000462;28;20491;-51
2021/10/19 04:10:58;;;;;;;10.40;8.60;;;14.40;99.90;;;;;;4997413;28;20347;-51
2021/10/19 04:13:25;;;;;;;9.93;8.73;;;14.40;99.90;;;;;;5001537;28;20553;-52
2021/10/19 04:15:53;;;;;;;10.07;8.63;;;14.40;99.90;;;;;;5003146;28;20301;-50
2021/10/19 04:18:20;;;;;;;9.20;8.03;;;14.40;99.90;;;;;;5002169;28;20235;-52
2021/10/19 04:20:48;;;;;;;14.43;9.03;;;14.50;99.90;;;;;;5001809;28;20201;-52
2021/10/19 04:23:15;;;;;;;10.17;7.80;;;14.40;99.90;;;;;;4998896;28;20247;-51
2021/10/19 04:25:42;;;;;;;12.77;9.00;;;14.40;99.90;;;;;;4997904;28;20864;-51
2021/10/19 04:28:09;;;;;;;11.30;9.13;;;14.40;99.90;;;;;;5000822;28;20248;-52
2021/10/19 04:30:37;;;;;;;11.07;8.63;;;14.40;99.90;;;;;;5002069;28;20626;-51
2021/10/19 04:33:04;;;;;;;12.63;8.57;;;14.50;99.90;;;;;;5002704;28;20232;-51
2021/10/19 04:35:31;;;;;;;11.03;7.90;;;14.50;99.90;;;;;;5000745;28;20260;-51
2021/10/19 04:37:57;;;;;;;8.70;7.67;;;14.50;99.90;;;;;;5004079;28;20534;-51
2021/10/19 04:40:24;;;;;;;9.43;7.90;;;14.50;99.90;;;;;;5003024;28;20213;-52
2021/10/19 04:42:52;;;;;;;9.10;7.87;;;14.50;99.90;;;;;;5006462;28;20232;-51
2021/10/19 04:45:20;;;;;;;10.20;8.20;;;14.50;99.90;;;;;;5003579;28;20208;-52
2021/10/19 04:47:47;;;;;;;8.27;7.03;;;14.50;99.90;;;;;;5004856;28;20236;-51
2021/10/19 04:50:14;;;;;;;11.63;7.83;;;14.50;99.90;;;;;;5002957;28;20272;-52
2021/10/19 04:52:41;;;;;;;8.77;7.27;;;14.50;99.90;;;;;;5004027;28;20232;-50
2021/10/19 04:55:08;;;;;;;10.20;7.33;;;14.50;99.90;;;;;;4999394;28;20230;-50
2021/10/19 04:57:35;;;;;;;9.07;7.17;;;14.50;99.90;;;;;;5004470;28;20211;-49
2021/10/19 05:00:03;;;;;;;11.43;7.17;;;14.50;99.90;;;;;;4983847;28;20299;-50
2021/10/19 05:02:30;;;;;;;8.27;7.23;;;14.50;99.90;;;;;;5006225;28;20195;-52
2021/10/19 05:04:57;;;;;;;9.67;7.33;;;14.50;99.90;;;;;;5003664;28;20253;-50
2021/10/19 05:07:24;;;;;;;8.83;7.67;;;14.50;99.90;;;;;;5004763;28;20622;-50
2021/10/19 05:09:50;;;;;;;10.40;7.60;;;14.60;99.90;;;;;;5002560;28;20567;-50
2021/10/19 05:12:17;;;;;;;9.10;7.47;;;14.60;99.90;;;;;;5003920;28;20974;-53
2021/10/19 05:14:44;;;;;;;8.73;7.60;;;14.60;99.90;;;;;;5004230;28;20268;-50
2021/10/19 05:17:11;;;;;;;9.83;7.33;;;14.60;99.90;;;;;;5004870;28;20268;-49
2021/10/19 05:19:38;;;;;;;9.70;7.10;;;14.60;99.90;;;;;;5007016;28;20339;-50
2021/10/19 05:22:04;;;;;;;10.60;7.30;;;14.60;99.90;;;;;;5003733;28;20202;-51
2021/10/19 05:24:31;;;;;;;10.37;7.60;;;14.60;99.90;;;;;;5005635;28;20382;-50
2021/10/19 05:26:58;;;;;;;8.13;6.70;;;14.60;99.90;;;;;;5003768;28;20239;-50
2021/10/19 05:29:25;;;;;;;8.80;6.77;;;14.70;99.90;;;;;;5005457;28;20209;-51
2021/10/19 05:31:52;;;;;;;10.60;7.03;;;14.70;99.90;;;;;;5002861;28;20202;-51
2021/10/19 05:34:19;;;;;;;9.93;7.20;;;14.70;99.90;;;;;;5004379;28;20252;-50
2021/10/19 05:36:45;;;;;;;8.57;7.20;;;14.70;99.90;;;;;;5000346;28;20304;-51
2021/10/19 05:39:15;;;;;;;8.17;6.93;;;14.70;99.90;;;;;;5007203;28;20255;-50
2021/10/19 05:41:42;;;;;;;8.03;6.40;;;14.70;99.90;;;;;;5006990;28;20232;-50
2021/10/19 05:44:09;;;;;;;13.03;7.10;;;14.70;99.90;;;;;;5007598;28;20230;-50
2021/10/19 05:46:36;;;;;;;11.57;7.07;;;14.80;99.90;;;;;;5008678;28;20263;-52
2021/10/19 05:49:03;;;;;;;10.67;6.70;;;14.80;99.90;;;;;;5006357;28;20251;-51
2021/10/19 05:51:30;;;;;;;8.43;7.40;;;14.80;99.90;;;;;;5003877;28;20300;-52
2021/10/19 05:53:58;;;;;;;7.90;6.43;;;14.80;99.90;;;;;;5006185;28;20291;-52
2021/10/19 05:56:25;;;;;;;7.90;7.03;;;14.80;99.90;;;;;;5006645;28;20260;-50
2021/10/19 05:58:52;;;;;;;10.27;7.60;;;14.80;99.90;;;;;;5006393;28;20197;-50
2021/10/19 06:01:19;;;;;;;9.27;6.90;;;14.80;99.90;;;;;;5000294;28;20816;-51
2021/10/19 06:03:46;;;;;;;8.53;6.93;;;14.90;99.90;;;;;;5004947;28;20297;-50
2021/10/19 06:06:13;;;;;;;7.23;6.53;;;14.80;99.90;;;;;;5007827;28;20236;-50
2021/10/19 06:08:40;;;;;;;8.07;6.57;;;14.90;99.90;;;;;;5008387;28;20283;-52
2021/10/19 06:11:07;;;;;;;9.00;6.80;;;14.90;99.90;;;;;;5004366;28;20873;-52
2021/10/19 06:13:34;;;;;;;9.73;6.63;;;14.90;99.90;;;;;;5005035;28;20202;-52
2021/10/19 06:16:01;;;;;;;10.27;6.73;;;14.90;99.90;;;;;;5003443;28;20551;-52
2021/10/19 06:18:28;;;;;;;8.90;7.03;;;14.90;99.90;;;;;;5001497;28;20194;-50
2021/10/19 06:20:54;;;;;;;10.17;6.83;;;14.90;99.90;;;;;;5004800;28;20300;-50
2021/10/19 06:23:22;;;;;;;10.63;7.57;;;15.00;99.90;;;;;;5000635;28;20212;-51
2021/10/19 06:25:50;;;;;;;8.30;7.50;;;15.00;99.90;;;;;;4997981;28;20211;-51
2021/10/19 06:28:17;;;;;;;8.67;7.00;;;15.00;99.90;;;;;;5005554;28;20236;-51
2021/10/19 06:30:43;;;;;;;10.83;7.63;;;15.00;99.90;;;;;;5002111;28;20206;-52
2021/10/19 06:33:10;;;;;;;11.67;7.70;;;15.00;99.90;;;;;;4999467;28;20292;-52
2021/10/19 06:35:37;;;;;;;9.27;7.53;;;15.00;99.90;;;;;;4999732;28;20647;-51
2021/10/19 06:38:04;;;;;;;8.27;7.37;;;15.10;99.90;;;;;;5002723;28;20640;-51
2021/10/19 06:40:31;;;;;;;9.10;7.63;;;15.00;99.90;;;;;;5006027;28;20303;-51
2021/10/19 06:42:58;;;;;;;8.87;7.53;;;15.00;99.90;;;;;;5001006;28;20197;-51
2021/10/19 06:45:25;;;;;;;11.73;8.63;;;15.10;99.90;;;;;;4993900;28;20296;-51
2021/10/19 06:47:52;;;;;;;8.83;7.50;;;15.10;99.90;;;;;;5001505;28;20272;-51
2021/10/19 06:50:19;;;;;;;9.43;7.97;;;15.10;99.90;;;;;;5001395;28;20646;-51
2021/10/19 06:52:45;;;;;;;11.63;7.80;;;15.20;99.90;;;;;;4999655;28;20681;-51
2021/10/19 06:55:12;;;;;;;8.97;7.30;;;15.10;99.90;;;;;;5002794;28;20226;-51
2021/10/19 06:57:43;;;;;;;12.47;7.83;;;15.20;99.90;;;;;;4999463;28;20279;-51
2021/10/19 07:00:13;;;;;;;9.47;7.30;;;15.20;99.90;;;;;;5000015;28;20280;-52
2021/10/19 07:02:44;;;;;;;11.87;8.93;;;15.10;99.90;;;;;;4999447;28;20662;-51
2021/10/19 07:05:47;;;;;;;11.53;8.47;;;15.20;99.90;;;;;;5052316;27;20622;-50
2021/10/19 07:08:14;;;;;;;10.63;8.20;;;15.20;99.90;;;;;;5057079;28;20220;-51
2021/10/19 07:10:41;;;;;;;9.00;7.70;;;15.20;99.90;;;;;;5059325;28;20199;-50
2021/10/19 07:13:08;;;;;;;9.33;8.03;;;15.20;99.90;;;;;;5057743;28;20264;-50
2021/10/19 07:15:35;;;;;;;10.63;8.20;;;15.30;99.90;;;;;;5056536;28;20303;-52
2021/10/19 07:18:06;;;;;;;9.63;8.33;;;15.30;99.90;;;;;;5052731;28;20285;-50
2021/10/19 07:20:34;;;;;;;10.10;8.10;;;15.30;99.90;;;;;;5054638;28;23279;-50
2021/10/19 07:23:00;;;;;;;9.80;7.83;;;15.30;99.90;;;;;;5044980;28;20749;-50
2021/10/19 07:25:28;;;;;;;9.90;8.10;;;15.30;99.90;;;;;;5049527;28;20823;-51
2021/10/19 07:28:00;;;;;;;9.10;8.07;;;15.40;99.90;;;;;;5057709;28;20317;-50
2021/10/19 07:30:27;;;;;;;9.90;8.27;;;15.40;99.90;;;;;;5053811;28;20228;-52
2021/10/19 07:32:53;;;;;;;9.83;7.87;;;15.40;99.90;;;;;;5059320;28;20258;-50
2021/10/19 07:35:21;;;;;;;10.37;7.90;;;15.40;99.90;;;;;;5045401;28;20292;-50
2021/10/19 07:37:49;;;;;;;9.63;7.83;;;15.40;99.90;;;;;;5049987;28;20234;-52
2021/10/19 07:40:19;;;;;;;9.60;8.13;;;15.40;99.90;;;;;;5052788;28;20247;-49
2021/10/19 07:42:46;;;;;;;8.93;8.03;;;15.50;99.90;;;;;;5059223;28;20605;-50
2021/10/19 07:45:14;;;;;;;8.83;7.47;;;15.50;99.90;;;;;;5055104;28;20207;-50
2021/10/19 07:47:45;;;;;;;13.57;7.70;;;15.50;99.90;;;;;;5055339;28;20219;-52
2021/10/19 07:50:15;;;;;;;10.60;8.07;;;15.50;99.90;;;;;;5048466;28;20502;-50
2021/10/19 07:52:44;;;;;;;9.37;7.63;;;15.50;99.90;;;;;;5051853;28;20555;-52
2021/10/19 07:55:12;;;;;;;8.73;7.27;;;15.60;99.90;;;;;;5055694;28;20426;-51
2021/10/19 07:57:47;;;;;;;10.43;7.60;;;15.60;99.90;;;;;;5062830;28;20212;-52
2021/10/19 08:00:15;;;;;;;9.53;7.33;;;15.60;99.90;;;;;;5056070;28;20238;-50
2021/10/19 08:02:43;;;;;;;7.77;6.87;;;15.60;99.90;;;;;;5062594;28;20203;-52
2021/10/19 08:05:14;;;;;;;9.40;6.90;;;15.60;99.90;;;;;;5047500;28;20247;-49
2021/10/19 08:07:43;;;;;;;8.93;7.00;;;15.60;99.90;;;;;;5061828;28;20235;-52
2021/10/19 08:10:11;;;;;;;7.80;7.00;;;15.60;99.90;;;;;;5060595;28;20253;-50
2021/10/19 08:12:38;;;;;;;9.97;7.03;;;15.70;99.90;;;;;;5058015;28;20301;-49
2021/10/19 08:15:05;;;;;;;8.53;7.63;;;15.70;99.90;;;;;;5062982;28;20210;-51
2021/10/19 08:17:32;;;;;;;7.40;6.63;;;15.70;99.90;;;;;;5049502;28;20291;-51
2021/10/19 08:19:59;;;;;;;7.73;6.93;;;15.70;99.90;;;;;;5048081;28;20726;-51
2021/10/19 08:22:29;;;;;;;8.27;7.07;;;15.80;99.90;;;;;;5051479;28;20231;-51
2021/10/19 08:24:56;;;;;;;8.23;7.00;;;15.80;99.90;;;;;;5045848;28;20217;-51
2021/10/19 08:27:24;;;;;;;8.47;6.90;;;15.80;99.90;;;;;;5047114;28;20245;-51
2021/10/19 08:29:52;;;;;;;9.03;6.93;;;15.80;99.90;;;;;;5050208;28;20643;-50
2021/10/19 08:32:19;;;;;;;7.90;6.93;;;15.80;99.90;;;;;;5048630;28;20700;-51
2021/10/19 08:34:47;;;;;;;8.90;6.70;;;15.80;99.90;;;;;;5050864;28;20726;-52
2021/10/19 08:37:14;;;;;;;8.33;6.47;;;15.80;99.90;;;;;;5041526;28;20275;-50
2021/10/19 08:39:41;;;;;;;9.70;6.57;;;15.80;99.90;;;;;;5042024;28;20638;-50
2021/10/19 08:42:08;;;;;;;8.60;6.30;;;15.80;99.90;;;;;;5046497;28;20576;-50
2021/10/19 08:44:35;;;;;;;8.53;6.23;;;15.80;99.90;;;;;;5036935;28;20275;-52
2021/10/19 08:47:02;;;;;;;6.73;6.00;;;15.80;99.90;;;;;;5038552;28;20274;-52
2021/10/19 08:49:29;;;;;;;6.40;5.80;;;15.80;99.90;;;;;;5039445;28;20277;-49
2021/10/19 08:51:56;;;;;;;5.50;4.80;;;15.80;99.90;;;;;;5042006;28;20225;-50
2021/10/19 08:54:23;;;;;;;6.80;5.20;;;15.90;99.90;;;;;;5040132;28;20233;-50
2021/10/19 08:56:50;;;;;;;6.07;5.37;;;15.80;99.90;;;;;;5042347;28;20194;-50
2021/10/19 08:59:23;;;;;;;6.50;4.90;;;15.90;99.90;;;;;;5040151;28;20287;-50
2021/10/19 09:01:55;;;;;;;6.23;5.53;;;15.90;99.90;;;;;;5046721;28;20621;-50
2021/10/19 09:04:28;;;;;;;5.87;4.80;;;15.90;99.90;;;;;;5046858;28;20263;-50
2021/10/19 09:06:56;;;;;;;5.23;4.73;;;15.90;99.90;;;;;;5036482;28;20295;-50
2021/10/19 09:09:24;;;;;;;5.23;4.73;;;16.00;99.90;;;;;;5041822;28;20223;-50
2021/10/19 09:11:53;;;;;;;6.00;5.00;;;16.00;99.90;;;;;;5040683;28;20668;-50
2021/10/19 09:14:31;;;;;;;5.93;4.80;;;16.00;99.90;;;;;;5040600;28;20224;-50
2021/10/19 09:17:00;;;;;;;5.60;5.03;;;16.00;99.90;;;;;;5035741;28;20615;-50
2021/10/19 09:19:28;;;;;;;6.10;5.50;;;16.00;99.90;;;;;;5037000;28;20205;-50
2021/10/19 09:22:01;;;;;;;8.10;5.33;;;16.00;99.90;;;;;;5039638;28;20241;-50
2021/10/19 09:24:41;;;;;;;7.57;6.27;;;16.00;99.90;;;;;;5036019;28;20313;-50
2021/10/19 09:27:15;;;;;;;6.87;6.13;;;16.00;99.90;;;;;;5031426;28;20293;-50
2021/10/19 09:29:46;;;;;;;9.33;5.93;;;16.10;99.90;;;;;;5032247;28;20231;-50
2021/10/19 09:32:14;;;;;;;7.90;6.10;;;16.10;99.90;;;;;;5041733;28;20230;-50
2021/10/19 09:34:46;;;;;;;7.73;6.30;;;16.10;99.90;;;;;;5032558;28;20250;-50
2021/10/19 09:37:20;;;;;;;8.53;6.83;;;16.10;99.90;;;;;;5033468;28;20425;-49
2021/10/19 09:39:50;;;;;;;10.43;6.53;;;16.10;99.90;;;;;;5030484;28;20202;-52
2021/10/19 09:42:18;;;;;;;9.60;7.17;;;16.10;99.90;;;;;;5037847;28;20231;-50
2021/10/19 09:44:57;;;;;;;9.60;6.70;;;16.20;99.90;;;;;;5048302;28;20712;-52
2021/10/19 09:47:42;;;;;;;9.20;7.37;;;16.20;99.90;;;;;;5032723;28;20232;-49
2021/10/19 09:50:10;;;;;;;9.73;8.03;;;16.20;99.90;;;;;;5046462;28;20275;-49
2021/10/19 09:52:38;;;;;;;8.80;7.53;;;16.30;99.90;;;;;;5049489;28;20249;-49
2021/10/19 09:55:10;;;;;;;14.63;8.33;;;16.30;99.90;;;;;;5038079;28;20201;-50
2021/10/19 09:57:38;;;;;;;9.43;7.77;;;16.30;99.90;;;;;;5034562;28;20204;-50
2021/10/19 10:00:06;;;;;;;12.60;9.17;;;16.40;99.90;;;;;;5041408;28;20259;-51
2021/10/19 10:02:34;;;;;;;12.20;8.70;;;16.40;99.90;;;;;;5043614;28;20658;-50
2021/10/19 10:05:02;;;;;;;9.07;7.63;;;16.40;99.90;;;;;;5046487;28;20509;-51
2021/10/19 10:07:30;;;;;;;10.03;7.80;;;16.40;99.90;;;;;;5036634;28;20740;-51
2021/10/19 10:09:59;;;;;;;10.40;7.80;;;16.40;99.90;;;;;;5039053;28;20200;-51
2021/10/19 10:12:30;;;;;;;16.97;9.63;;;16.50;99.90;;;;;;5041403;28;20314;-50
2021/10/19 10:14:57;;;;;;;12.87;8.43;;;16.40;99.90;;;;;;5042973;28;20239;-51
2021/10/19 10:17:24;;;;;;;11.70;8.87;;;16.50;99.90;;;;;;5045080;28;20288;-51
2021/10/19 10:19:52;;;;;;;11.27;8.87;;;16.50;99.90;;;;;;5039761;28;20235;-51
2021/10/19 10:22:29;;;;;;;11.37;8.77;;;16.50;99.90;;;;;;5033176;28;20210;-51
2021/10/19 10:25:08;;;;;;;11.47;8.73;;;16.60;99.90;;;;;;5035931;28;20210;-51
2021/10/19 10:27:36;;;;;;;13.47;9.60;;;16.60;99.90;;;;;;5040819;28;21929;-52
2021/10/19 10:30:03;;;;;;;13.93;10.00;;;16.70;99.90;;;;;;5039354;28;20229;-49
2021/10/19 10:32:36;;;;;;;14.23;10.33;;;16.70;99.90;;;;;;5045009;28;20274;-50
2021/10/19 10:35:07;;;;;;;15.10;10.60;;;16.70;99.90;;;;;;5039445;28;20202;-52
2021/10/19 10:37:41;;;;;;;16.27;11.30;;;16.80;99.90;;;;;;5037612;28;20225;-51
2021/10/19 10:40:25;;;;;;;13.07;9.63;;;16.80;99.90;;;;;;5039772;28;20297;-51
2021/10/19 10:42:52;;;;;;;17.10;10.33;;;16.80;99.90;;;;;;5038890;28;20194;-51
2021/10/19 10:45:30;;;;;;;15.30;10.20;;;16.80;99.90;;;;;;5036083;28;20215;-49
2021/10/19 10:48:03;;;;;;;16.27;10.97;;;16.80;99.90;;;;;;5039467;28;20203;-52
2021/10/19 10:50:32;;;;;;;19.13;11.67;;;16.90;99.90;;;;;;5042880;28;20233;-50
2021/10/19 10:53:05;;;;;;;17.63;11.60;;;16.90;99.90;;;;;;5037178;28;20200;-52
2021/10/19 10:55:54;;;;;;;16.73;11.20;;;16.90;99.90;;;;;;5039067;28;20252;-51
2021/10/19 10:58:25;;;;;;;14.77;11.00;;;16.90;99.90;;;;;;5037026;28;20230;-51
2021/10/19 11:00:52;;;;;;;19.73;11.30;;;17.00;99.90;;;;;;5036658;28;20217;-51
2021/10/19 11:03:20;;;;;;;21.97;13.33;;;17.00;99.90;;;;;;5048018;28;20318;-51
2021/10/19 11:06:00;;;;;;;18.33;11.73;;;17.00;99.90;;;;;;5041488;28;20304;-51
2021/10/19 11:08:31;;;;;;;18.10;12.03;;;17.00;99.90;;;;;;5048769;28;20247;-51
2021/10/19 11:11:08;;;;;;;21.17;12.47;;;17.00;99.90;;;;;;5044291;28;20205;-51
2021/10/19 11:13:54;;;;;;;19.17;12.53;;;17.00;99.90;;;;;;5040621;28;20225;-52
2021/10/19 11:16:33;;;;;;;19.17;13.53;;;17.10;99.90;;;;;;5036928;28;20654;-53
2021/10/19 11:19:05;;;;;;;21.70;13.53;;;17.10;99.90;;;;;;5032680;28;20536;-53
2021/10/19 11:21:33;;;;;;;19.77;14.07;;;17.10;99.90;;;;;;5033433;28;20324;-52
2021/10/19 11:23:59;;;;;;;19.37;13.03;;;17.20;99.90;;;;;;5042950;28;20202;-52
2021/10/19 11:26:26;;;;;;;19.83;13.43;;;17.20;99.90;;;;;;5033299;28;20216;-49
2021/10/19 11:28:57;;;;;;;22.23;14.23;;;17.20;99.90;;;;;;5043286;28;20204;-52
2021/10/19 11:31:26;;;;;;;21.63;13.90;;;17.20;99.90;;;;;;5042006;28;20514;-50
2021/10/19 11:33:55;;;;;;;19.67;13.03;;;17.20;99.90;;;;;;5041550;28;20292;-52
2021/10/19 11:36:22;;;;;;;18.37;13.40;;;17.30;99.90;;;;;;5033292;28;20659;-52
2021/10/19 11:38:52;;;;;;;21.03;14.30;;;17.30;99.90;;;;;;5046014;28;20592;-52
2021/10/19 11:41:21;;;;;;;18.60;13.07;;;17.40;99.90;;;;;;5036876;28;20298;-52
2021/10/19 11:43:51;;;;;;;18.50;12.37;;;17.30;99.90;;;;;;5031253;28;20219;-52
2021/10/19 11:46:21;;;;;;;16.50;11.77;;;17.30;99.90;;;;;;5033533;28;20313;-52
2021/10/19 11:48:50;;;;;;;20.37;12.77;;;17.30;99.90;;;;;;5042738;28;20216;-52
2021/10/19 11:51:20;;;;;;;16.17;11.93;;;17.30;99.90;;;;;;5038863;28;20257;-52
2021/10/19 11:53:48;;;;;;;17.80;12.20;;;17.40;99.90;;;;;;5045291;28;20953;-52
2021/10/19 11:56:16;;;;;;;16.17;12.07;;;17.30;99.90;;;;;;5042454;28;20237;-52
2021/10/19 11:58:50;;;;;;;14.03;11.40;;;17.30;99.90;;;;;;5050151;28;20235;-52
2021/10/19 12:01:19;;;;;;;16.47;12.53;;;17.30;99.90;;;;;;5037167;28;20205;-52
2021/10/19 12:04:01;;;;;;;16.93;12.60;;;17.30;99.90;;;;;;5036318;28;20222;-52
2021/10/19 12:06:30;;;;;;;16.90;12.17;;;17.30;99.90;;;;;;5036965;28;20250;-52
2021/10/19 12:09:08;;;;;;;18.00;12.63;;;17.30;99.90;;;;;;5042021;28;20895;-52
2021/10/19 12:11:36;;;;;;;15.83;12.50;;;17.30;99.90;;;;;;5034524;28;20208;-52
2021/10/19 12:14:05;;;;;;;18.83;13.23;;;17.30;99.90;;;;;;5043699;28;20239;-53
2021/10/19 12:16:32;;;;;;;16.20;12.43;;;17.40;99.90;;;;;;5051463;28;20261;-52
2021/10/19 12:19:01;;;;;;;19.87;13.03;;;17.40;99.90;;;;;;5044932;28;20673;-52
2021/10/19 12:21:31;;;;;;;19.80;13.97;;;17.30;99.90;;;;;;5036670;28;20212;-52
2021/10/19 12:24:02;;;;;;;18.30;14.43;;;17.40;99.90;;;;;;5039504;28;20649;-52
2021/10/19 12:26:32;;;;;;;17.47;13.40;;;17.40;99.90;;;;;;5043810;28;20279;-52
2021/10/19 12:29:04;;;;;;;19.70;14.00;;;17.50;99.90;;;;;;5049781;28;20268;-52
2021/10/19 12:31:32;;;;;;;18.80;14.50;;;17.50;99.90;;;;;;5049263;28;20233;-51
2021/10/19 12:34:02;;;;;;;20.20;14.73;;;17.60;99.90;;;;;;5035287;28;20620;-51
2021/10/19 12:36:35;;;;;;;19.70;14.50;;;17.60;99.90;;;;;;5035948;28;20313;-51
2021/10/19 12:39:13;;;;;;;18.83;15.20;;;17.60;99.90;;;;;;5038863;28;20198;-51
2021/10/19 12:41:42;;;;;;;21.73;15.03;;;17.70;99.90;;;;;;5035645;28;20207;-51
2021/10/19 12:44:16;;;;;;;23.23;15.10;;;17.70;99.90;;;;;;5041815;28;20699;-51